sensor_id;sensor_type;location;lat;lon;timestamp;temperature;humidity
6930;DHT22;3504;52.616;13.238;2024-03-08T00:03:01;0.99;72.36
6930;DHT22;3504;52.616;13.238;2024-03-08T00:08:02;0.95;72.63
6930;DHT22;3504;52.616;13.238;2024-03-08T00:13:03;0.95;72.72
6930;DHT22;3504;52.616;13.238;2024-03-08T00:18:04;0.85;73.08
6930;DHT22;3504;52.616;13.238;2024-03-08T00:23:05;0.86;73.01
6930;DHT22;3504;52.616;13.238;2024-03-08T00:28:05;0.88;72.55
6930;DHT22;3504;52.616;13.238;2024-03-08T00:33:06;0.90;72.62
6930;DHT22;3504;52.616;13.238;2024-03-08T00:38:06;0.86;72.89
6930;DHT22;3504;52.616;13.238;2024-03-08T00:43:07;0.82;72.79
6930;DHT22;3504;52.616;13.238;2024-03-08T00:48:09;0.82;72.70
6930;DHT22;3504;52.616;13.238;2024-03-08T00:53:10;0.76;72.95
6930;DHT22;3504;52.616;13.238;2024-03-08T00:58:11;0.70;73.07
6930;DHT22;3504;52.616;13.238;2024-03-08T01:03:12;0.66;72.95
6930;DHT22;3504;52.616;13.238;2024-03-08T01:08:12;0.68;72.82
6930;DHT22;3504;52.616;13.238;2024-03-08T01:13:13;0.62;73.32
6930;DHT22;3504;52.616;13.238;2024-03-08T01:18:13;0.59;73.30
6930;DHT22;3504;52.616;13.238;2024-03-08T01:23:14;0.57;73.41
6930;DHT22;3504;52.616;13.238;2024-03-08T01:28:14;0.52;73.35
6930;DHT22;3504;52.616;13.238;2024-03-08T01:33:15;0.52;73.19
6930;DHT22;3504;52.616;13.238;2024-03-08T01:38:15;0.51;73.01
6930;DHT22;3504;52.616;13.238;2024-03-08T01:43:27;0.49;73.14
6930;DHT22;3504;52.616;13.238;2024-03-08T01:48:31;0.45;73.17
6930;DHT22;3504;52.616;13.238;2024-03-08T01:53:32;0.38;73.24
6930;DHT22;3504;52.616;13.238;2024-03-08T01:58:32;0.33;73.57
6930;DHT22;3504;52.616;13.238;2024-03-08T02:03:33;0.30;73.76
6930;DHT22;3504;52.616;13.238;2024-03-08T02:08:34;0.23;73.76
6930;DHT22;3504;52.616;13.238;2024-03-08T02:13:35;0.14;73.88
6930;DHT22;3504;52.616;13.238;2024-03-08T02:18:36;0.17;73.93
6930;DHT22;3504;52.616;13.238;2024-03-08T02:23:36;0.14;73.84
6930;DHT22;3504;52.616;13.238;2024-03-08T02:28:37;0.13;73.95
6930;DHT22;3504;52.616;13.238;2024-03-08T02:33:39;0.10;74.00
6930;DHT22;3504;52.616;13.238;2024-03-08T02:38:42;0.06;74.20
6930;DHT22;3504;52.616;13.238;2024-03-08T02:43:43;-0.02;74.37
6930;DHT22;3504;52.616;13.238;2024-03-08T02:48:46;-0.07;74.12
6930;DHT22;3504;52.616;13.238;2024-03-08T02:53:47;-0.10;74.33
6930;DHT22;3504;52.616;13.238;2024-03-08T02:58:49;-0.09;74.36
6930;DHT22;3504;52.616;13.238;2024-03-08T03:03:49;-0.13;74.80
6930;DHT22;3504;52.616;13.238;2024-03-08T03:08:50;-0.13;74.61
6930;DHT22;3504;52.616;13.238;2024-03-08T03:13:51;-0.13;74.51
6930;DHT22;3504;52.616;13.238;2024-03-08T03:18:52;-0.13;74.59
6930;DHT22;3504;52.616;13.238;2024-03-08T03:23:52;-0.15;74.51
6930;DHT22;3504;52.616;13.238;2024-03-08T03:28:53;-0.15;74.57
6930;DHT22;3504;52.616;13.238;2024-03-08T03:33:54;-0.20;74.62
6930;DHT22;3504;52.616;13.238;2024-03-08T03:38:54;-0.28;74.91
6930;DHT22;3504;52.616;13.238;2024-03-08T03:44:15;-0.28;74.84
6930;DHT22;3504;52.616;13.238;2024-03-08T03:49:16;-0.27;74.76
6930;DHT22;3504;52.616;13.238;2024-03-08T03:54:17;-0.34;74.74
6930;DHT22;3504;52.616;13.238;2024-03-08T03:59:18;-0.38;75.13
6930;DHT22;3504;52.616;13.238;2024-03-08T04:04:19;-0.41;75.26
6930;DHT22;3504;52.616;13.238;2024-03-08T04:09:19;-0.40;75.43
6930;DHT22;3504;52.616;13.238;2024-03-08T04:14:20;-0.46;75.19
6930;DHT22;3504;52.616;13.238;2024-03-08T04:19:20;-0.52;75.15
6930;DHT22;3504;52.616;13.238;2024-03-08T04:24:21;-0.58;75.38
6930;DHT22;3504;52.616;13.238;2024-03-08T04:29:21;-0.59;75.76
6930;DHT22;3504;52.616;13.238;2024-03-08T04:34:22;-0.61;76.19
6930;DHT22;3504;52.616;13.238;2024-03-08T04:39:22;-0.59;76.52
6930;DHT22;3504;52.616;13.238;2024-03-08T04:44:23;-0.58;76.51
6930;DHT22;3504;52.616;13.238;2024-03-08T04:49:25;-0.61;76.53
6930;DHT22;3504;52.616;13.238;2024-03-08T04:54:25;-0.56;76.60
6930;DHT22;3504;52.616;13.238;2024-03-08T04:59:27;-0.58;76.26
6930;DHT22;3504;52.616;13.238;2024-03-08T05:04:28;-0.55;76.31
6930;DHT22;3504;52.616;13.238;2024-03-08T05:09:29;-0.52;76.28
6930;DHT22;3504;52.616;13.238;2024-03-08T05:14:31;-0.56;76.49
6930;DHT22;3504;52.616;13.238;2024-03-08T05:19:32;-0.54;76.40
6930;DHT22;3504;52.616;13.238;2024-03-08T05:24:32;-0.54;76.72
6930;DHT22;3504;52.616;13.238;2024-03-08T05:29:33;-0.55;76.87
6930;DHT22;3504;52.616;13.238;2024-03-08T05:34:33;-0.54;76.88
6930;DHT22;3504;52.616;13.238;2024-03-08T05:39:34;-0.56;77.13
6930;DHT22;3504;52.616;13.238;2024-03-08T05:44:34;-0.62;77.25
6930;DHT22;3504;52.616;13.238;2024-03-08T05:49:35;-0.58;77.40
6930;DHT22;3504;52.616;13.238;2024-03-08T05:54:36;-0.58;77.53
6930;DHT22;3504;52.616;13.238;2024-03-08T05:59:36;-0.52;77.39
6930;DHT22;3504;52.616;13.238;2024-03-08T06:04:37;-0.49;77.55
6930;DHT22;3504;52.616;13.238;2024-03-08T06:09:38;-0.44;77.78
6930;DHT22;3504;52.616;13.238;2024-03-08T06:14:39;-0.41;77.78
6930;DHT22;3504;52.616;13.238;2024-03-08T06:19:39;-0.31;77.61
6930;DHT22;3504;52.616;13.238;2024-03-08T06:24:40;-0.24;77.64
6930;DHT22;3504;52.616;13.238;2024-03-08T06:29:40;-0.20;77.53
6930;DHT22;3504;52.616;13.238;2024-03-08T06:34:41;-0.11;77.86
6930;DHT22;3504;52.616;13.238;2024-03-08T06:39:41;-0.03;77.73
6930;DHT22;3504;52.616;13.238;2024-03-08T06:44:42;-0.03;78.30
6930;DHT22;3504;52.616;13.238;2024-03-08T06:49:49;0.03;78.37
6930;DHT22;3504;52.616;13.238;2024-03-08T06:54:50;0.14;78.55
6930;DHT22;3504;52.616;13.238;2024-03-08T06:59:52;0.26;78.16
6930;DHT22;3504;52.616;13.238;2024-03-08T07:04:54;0.38;78.22
6930;DHT22;3504;52.616;13.238;2024-03-08T07:09:55;0.54;78.22
6930;DHT22;3504;52.616;13.238;2024-03-08T07:14:57;0.69;78.10
6930;DHT22;3504;52.616;13.238;2024-03-08T07:19:57;0.86;77.93
6930;DHT22;3504;52.616;13.238;2024-03-08T07:24:59;1.03;77.32
6930;DHT22;3504;52.616;13.238;2024-03-08T07:30:23;1.17;77.33
6930;DHT22;3504;52.616;13.238;2024-03-08T07:35:42;1.40;76.94
6930;DHT22;3504;52.616;13.238;2024-03-08T07:40:44;1.60;76.53
6930;DHT22;3504;52.616;13.238;2024-03-08T07:45:45;1.77;75.44
6930;DHT22;3504;52.616;13.238;2024-03-08T07:50:45;1.96;75.12
6930;DHT22;3504;52.616;13.238;2024-03-08T07:55:46;2.22;74.65
6930;DHT22;3504;52.616;13.238;2024-03-08T08:00:49;2.32;73.85
6930;DHT22;3504;52.616;13.238;2024-03-08T08:05:49;2.53;73.78
6930;DHT22;3504;52.616;13.238;2024-03-08T08:10:50;2.74;73.10
6930;DHT22;3504;52.616;13.238;2024-03-08T08:15:51;2.91;72.22
6930;DHT22;3504;52.616;13.238;2024-03-08T08:20:52;3.19;72.51
6930;DHT22;3504;52.616;13.238;2024-03-08T08:25:55;3.38;72.16
6930;DHT22;3504;52.616;13.238;2024-03-08T08:30:56;3.59;71.35
6930;DHT22;3504;52.616;13.238;2024-03-08T08:35:56;3.77;69.66
6930;DHT22;3504;52.616;13.238;2024-03-08T08:40:57;4.05;69.97
6930;DHT22;3504;52.616;13.238;2024-03-08T08:45:57;4.36;69.25
6930;DHT22;3504;52.616;13.238;2024-03-08T08:50:58;4.53;67.39
6930;DHT22;3504;52.616;13.238;2024-03-08T08:55:59;4.80;66.46
6930;DHT22;3504;52.616;13.238;2024-03-08T09:01:02;5.08;66.76
6930;DHT22;3504;52.616;13.238;2024-03-08T09:06:08;5.30;64.03
6930;DHT22;3504;52.616;13.238;2024-03-08T09:11:14;5.41;62.82
6930;DHT22;3504;52.616;13.238;2024-03-08T09:16:15;5.74;60.21
6930;DHT22;3504;52.616;13.238;2024-03-08T09:21:16;6.09;60.53
6930;DHT22;3504;52.616;13.238;2024-03-08T09:26:17;6.40;59.64
6930;DHT22;3504;52.616;13.238;2024-03-08T09:31:17;6.58;57.97
6930;DHT22;3504;52.616;13.238;2024-03-08T09:36:18;6.85;58.32
6930;DHT22;3504;52.616;13.238;2024-03-08T09:41:18;7.11;56.51
6930;DHT22;3504;52.616;13.238;2024-03-08T09:46:19;7.42;56.25
6930;DHT22;3504;52.616;13.238;2024-03-08T09:51:28;7.67;55.06
6930;DHT22;3504;52.616;13.238;2024-03-08T09:56:29;7.87;52.36
6930;DHT22;3504;52.616;13.238;2024-03-08T10:01:29;8.05;53.42
6930;DHT22;3504;52.616;13.238;2024-03-08T10:06:30;8.42;54.42
6930;DHT22;3504;52.616;13.238;2024-03-08T10:11:31;7.91;52.04
6930;DHT22;3504;52.616;13.238;2024-03-08T10:16:31;8.22;51.82
6930;DHT22;3504;52.616;13.238;2024-03-08T10:21:32;8.36;51.91
6930;DHT22;3504;52.616;13.238;2024-03-08T10:26:33;8.54;51.07
6930;DHT22;3504;52.616;13.238;2024-03-08T10:31:34;8.74;50.60
6930;DHT22;3504;52.616;13.238;2024-03-08T10:36:35;8.69;50.49
6930;DHT22;3504;52.616;13.238;2024-03-08T10:41:39;8.83;48.97
6930;DHT22;3504;52.616;13.238;2024-03-08T10:47:01;9.20;49.38
6930;DHT22;3504;52.616;13.238;2024-03-08T10:52:05;9.28;48.41
6930;DHT22;3504;52.616;13.238;2024-03-08T10:57:08;9.21;48.53
6930;DHT22;3504;52.616;13.238;2024-03-08T11:02:15;9.25;46.82
6930;DHT22;3504;52.616;13.238;2024-03-08T11:07:16;9.46;45.93
6930;DHT22;3504;52.616;13.238;2024-03-08T11:12:29;9.61;46.26
6930;DHT22;3504;52.616;13.238;2024-03-08T11:22:39;9.43;46.15
6930;DHT22;3504;52.616;13.238;2024-03-08T11:27:53;9.36;46.06
6930;DHT22;3504;52.616;13.238;2024-03-08T11:33:11;9.74;46.98
6930;DHT22;3504;52.616;13.238;2024-03-08T11:38:13;9.99;46.64
6930;DHT22;3504;52.616;13.238;2024-03-08T11:43:14;10.03;46.20
6930;DHT22;3504;52.616;13.238;2024-03-08T11:48:14;10.09;45.71
6930;DHT22;3504;52.616;13.238;2024-03-08T11:53:15;10.04;45.93
6930;DHT22;3504;52.616;13.238;2024-03-08T11:58:15;9.81;46.02
6930;DHT22;3504;52.616;13.238;2024-03-08T12:03:19;9.96;46.84
6930;DHT22;3504;52.616;13.238;2024-03-08T12:08:20;9.87;44.34
6930;DHT22;3504;52.616;13.238;2024-03-08T12:13:21;9.94;44.56
6930;DHT22;3504;52.616;13.238;2024-03-08T12:18:22;10.12;44.14
6930;DHT22;3504;52.616;13.238;2024-03-08T12:23:23;9.90;45.24
6930;DHT22;3504;52.616;13.238;2024-03-08T12:28:23;9.78;44.93
6930;DHT22;3504;52.616;13.238;2024-03-08T12:33:26;9.78;45.29
6930;DHT22;3504;52.616;13.238;2024-03-08T12:38:28;9.85;45.56
6930;DHT22;3504;52.616;13.238;2024-03-08T12:43:28;9.76;44.80
6930;DHT22;3504;52.616;13.238;2024-03-08T12:48:35;9.70;45.38
6930;DHT22;3504;52.616;13.238;2024-03-08T12:53:36;9.67;45.54
6930;DHT22;3504;52.616;13.238;2024-03-08T12:58:37;9.70;45.79
6930;DHT22;3504;52.616;13.238;2024-03-08T13:03:38;9.63;44.06
6930;DHT22;3504;52.616;13.238;2024-03-08T13:08:40;9.59;45.07
6930;DHT22;3504;52.616;13.238;2024-03-08T13:13:40;9.70;44.41
6930;DHT22;3504;52.616;13.238;2024-03-08T13:18:41;9.69;44.23
6930;DHT22;3504;52.616;13.238;2024-03-08T13:23:44;9.73;43.88
6930;DHT22;3504;52.616;13.238;2024-03-08T13:28:50;9.74;44.00
6930;DHT22;3504;52.616;13.238;2024-03-08T13:33:56;9.66;44.40
6930;DHT22;3504;52.616;13.238;2024-03-08T13:39:01;9.82;44.71
6930;DHT22;3504;52.616;13.238;2024-03-08T13:44:02;9.79;44.20
6930;DHT22;3504;52.616;13.238;2024-03-08T13:49:05;9.81;45.66
6930;DHT22;3504;52.616;13.238;2024-03-08T13:54:08;9.67;45.08
6930;DHT22;3504;52.616;13.238;2024-03-08T13:59:08;9.55;44.86
6930;DHT22;3504;52.616;13.238;2024-03-08T14:04:09;9.58;46.04
6930;DHT22;3504;52.616;13.238;2024-03-08T14:09:12;9.62;45.93
6930;DHT22;3504;52.616;13.238;2024-03-08T14:14:17;9.52;45.87
6930;DHT22;3504;52.616;13.238;2024-03-08T14:19:19;9.52;46.56
6930;DHT22;3504;52.616;13.238;2024-03-08T14:24:20;9.53;46.64
6930;DHT22;3504;52.616;13.238;2024-03-08T14:29:20;9.45;47.26
6930;DHT22;3504;52.616;13.238;2024-03-08T14:34:24;9.41;47.39
6930;DHT22;3504;52.616;13.238;2024-03-08T14:39:27;9.25;47.27
6930;DHT22;3504;52.616;13.238;2024-03-08T14:44:29;9.31;47.25
6930;DHT22;3504;52.616;13.238;2024-03-08T14:49:30;9.24;47.90
6930;DHT22;3504;52.616;13.238;2024-03-08T14:54:31;9.22;47.17
6930;DHT22;3504;52.616;13.238;2024-03-08T14:59:31;9.28;47.35
6930;DHT22;3504;52.616;13.238;2024-03-08T15:04:32;9.27;47.05
6930;DHT22;3504;52.616;13.238;2024-03-08T15:09:36;9.17;46.92
6930;DHT22;3504;52.616;13.238;2024-03-08T15:14:42;9.20;46.87
6930;DHT22;3504;52.616;13.238;2024-03-08T15:19:44;9.12;46.46
6930;DHT22;3504;52.616;13.238;2024-03-08T15:24:44;9.05;47.43
6930;DHT22;3504;52.616;13.238;2024-03-08T15:29:45;9.01;48.41
6930;DHT22;3504;52.616;13.238;2024-03-08T15:34:49;8.97;48.12
6930;DHT22;3504;52.616;13.238;2024-03-08T15:39:49;8.93;48.44
6930;DHT22;3504;52.616;13.238;2024-03-08T15:44:50;8.87;48.51
6930;DHT22;3504;52.616;13.238;2024-03-08T15:49:51;8.83;48.54
6930;DHT22;3504;52.616;13.238;2024-03-08T15:54:51;8.79;48.86
6930;DHT22;3504;52.616;13.238;2024-03-08T15:59:52;8.70;48.68
6930;DHT22;3504;52.616;13.238;2024-03-08T16:04:55;8.64;48.44
6930;DHT22;3504;52.616;13.238;2024-03-08T16:09:56;8.56;47.98
6930;DHT22;3504;52.616;13.238;2024-03-08T16:14:56;8.46;48.96
6930;DHT22;3504;52.616;13.238;2024-03-08T16:19:57;8.38;49.07
6930;DHT22;3504;52.616;13.238;2024-03-08T16:24:58;8.33;49.45
6930;DHT22;3504;52.616;13.238;2024-03-08T16:29:58;8.24;48.89
6930;DHT22;3504;52.616;13.238;2024-03-08T16:34:59;8.18;49.67
6930;DHT22;3504;52.616;13.238;2024-03-08T16:40:01;8.08;49.88
6930;DHT22;3504;52.616;13.238;2024-03-08T16:45:01;7.97;50.20
6930;DHT22;3504;52.616;13.238;2024-03-08T16:50:05;7.85;50.57
6930;DHT22;3504;52.616;13.238;2024-03-08T16:55:07;7.77;50.42
6930;DHT22;3504;52.616;13.238;2024-03-08T17:00:21;7.67;50.38
6930;DHT22;3504;52.616;13.238;2024-03-08T17:05:30;7.56;50.67
6930;DHT22;3504;52.616;13.238;2024-03-08T17:10:32;7.51;51.15
6930;DHT22;3504;52.616;13.238;2024-03-08T17:15:33;7.43;51.82
6930;DHT22;3504;52.616;13.238;2024-03-08T17:20:36;7.24;51.34
6930;DHT22;3504;52.616;13.238;2024-03-08T17:25:36;7.16;51.65
6930;DHT22;3504;52.616;13.238;2024-03-08T17:30:39;7.08;51.14
6930;DHT22;3504;52.616;13.238;2024-03-08T17:35:41;6.95;51.34
6930;DHT22;3504;52.616;13.238;2024-03-08T17:40:42;6.87;51.75
6930;DHT22;3504;52.616;13.238;2024-03-08T17:45:43;6.77;51.78
6930;DHT22;3504;52.616;13.238;2024-03-08T17:50:46;6.67;51.71
6930;DHT22;3504;52.616;13.238;2024-03-08T17:55:49;6.61;51.37
6930;DHT22;3504;52.616;13.238;2024-03-08T18:00:52;6.54;51.73
6930;DHT22;3504;52.616;13.238;2024-03-08T18:05:54;6.44;51.71
6930;DHT22;3504;52.616;13.238;2024-03-08T18:10:55;6.37;51.65
6930;DHT22;3504;52.616;13.238;2024-03-08T18:15:55;6.31;52.08
6930;DHT22;3504;52.616;13.238;2024-03-08T18:20:56;6.24;51.62
6930;DHT22;3504;52.616;13.238;2024-03-08T18:25:57;6.20;52.07
6930;DHT22;3504;52.616;13.238;2024-03-08T18:30:57;6.09;51.90
6930;DHT22;3504;52.616;13.238;2024-03-08T18:35:58;6.00;52.49
6930;DHT22;3504;52.616;13.238;2024-03-08T18:40:59;5.99;52.27
6930;DHT22;3504;52.616;13.238;2024-03-08T18:46:01;5.95;52.52
6930;DHT22;3504;52.616;13.238;2024-03-08T18:51:01;5.86;52.63
6930;DHT22;3504;52.616;13.238;2024-03-08T18:56:02;5.88;52.99
6930;DHT22;3504;52.616;13.238;2024-03-08T19:01:03;5.81;52.84
6930;DHT22;3504;52.616;13.238;2024-03-08T19:06:05;5.79;53.04
6930;DHT22;3504;52.616;13.238;2024-03-08T19:11:06;5.72;53.06
6930;DHT22;3504;52.616;13.238;2024-03-08T19:16:07;5.71;53.15
6930;DHT22;3504;52.616;13.238;2024-03-08T19:21:14;5.67;53.06
6930;DHT22;3504;52.616;13.238;2024-03-08T19:26:15;5.62;53.49
6930;DHT22;3504;52.616;13.238;2024-03-08T19:31:22;5.58;53.57
6930;DHT22;3504;52.616;13.238;2024-03-08T19:36:22;5.54;54.01
6930;DHT22;3504;52.616;13.238;2024-03-08T19:41:23;5.51;53.94
6930;DHT22;3504;52.616;13.238;2024-03-08T19:46:24;5.45;54.61
6930;DHT22;3504;52.616;13.238;2024-03-08T19:51:24;5.42;54.80
6930;DHT22;3504;52.616;13.238;2024-03-08T19:56:25;5.39;54.95
6930;DHT22;3504;52.616;13.238;2024-03-08T20:01:26;5.31;55.70
6930;DHT22;3504;52.616;13.238;2024-03-08T20:06:26;5.24;55.79
6930;DHT22;3504;52.616;13.238;2024-03-08T20:11:27;5.23;56.12
6930;DHT22;3504;52.616;13.238;2024-03-08T20:16:28;5.10;56.54
6930;DHT22;3504;52.616;13.238;2024-03-08T20:21:29;5.13;56.92
6930;DHT22;3504;52.616;13.238;2024-03-08T20:26:29;5.06;57.19
6930;DHT22;3504;52.616;13.238;2024-03-08T20:31:30;5.04;57.47
6930;DHT22;3504;52.616;13.238;2024-03-08T20:36:32;5.04;57.61
6930;DHT22;3504;52.616;13.238;2024-03-08T20:41:32;4.96;58.07
6930;DHT22;3504;52.616;13.238;2024-03-08T20:46:33;4.96;58.34
6930;DHT22;3504;52.616;13.238;2024-03-08T20:51:34;4.89;58.54
6930;DHT22;3504;52.616;13.238;2024-03-08T20:56:35;4.89;58.69
6930;DHT22;3504;52.616;13.238;2024-03-08T21:01:36;4.82;59.06
6930;DHT22;3504;52.616;13.238;2024-03-08T21:06:37;4.77;59.46
6930;DHT22;3504;52.616;13.238;2024-03-08T21:11:38;4.73;59.53
6930;DHT22;3504;52.616;13.238;2024-03-08T21:16:38;4.75;59.84
6930;DHT22;3504;52.616;13.238;2024-03-08T21:21:41;4.71;60.23
6930;DHT22;3504;52.616;13.238;2024-03-08T21:26:41;4.59;60.40
6930;DHT22;3504;52.616;13.238;2024-03-08T21:31:42;4.58;60.76
6930;DHT22;3504;52.616;13.238;2024-03-08T21:36:43;4.49;61.10
6930;DHT22;3504;52.616;13.238;2024-03-08T21:41:45;4.45;61.19
6930;DHT22;3504;52.616;13.238;2024-03-08T21:46:46;4.42;61.43
6930;DHT22;3504;52.616;13.238;2024-03-08T21:51:48;4.39;61.51
6930;DHT22;3504;52.616;13.238;2024-03-08T21:56:50;4.34;61.74
6930;DHT22;3504;52.616;13.238;2024-03-08T22:01:50;4.25;62.33
6930;DHT22;3504;52.616;13.238;2024-03-08T22:06:53;4.18;62.42
6930;DHT22;3504;52.616;13.238;2024-03-08T22:11:56;4.17;62.66
6930;DHT22;3504;52.616;13.238;2024-03-08T22:16:57;4.11;62.84
6930;DHT22;3504;52.616;13.238;2024-03-08T22:21:58;4.08;63.08
6930;DHT22;3504;52.616;13.238;2024-03-08T22:26:59;3.97;63.78
6930;DHT22;3504;52.616;13.238;2024-03-08T22:32:01;3.97;63.73
6930;DHT22;3504;52.616;13.238;2024-03-08T22:37:01;3.91;64.12
6930;DHT22;3504;52.616;13.238;2024-03-08T22:42:05;3.87;64.58
6930;DHT22;3504;52.616;13.238;2024-03-08T22:47:06;3.81;64.60
6930;DHT22;3504;52.616;13.238;2024-03-08T22:52:07;3.79;64.91
6930;DHT22;3504;52.616;13.238;2024-03-08T22:57:08;3.77;65.04
6930;DHT22;3504;52.616;13.238;2024-03-08T23:02:09;3.74;65.15
6930;DHT22;3504;52.616;13.238;2024-03-08T23:07:10;3.64;65.82
6930;DHT22;3504;52.616;13.238;2024-03-08T23:12:11;3.63;65.90
6930;DHT22;3504;52.616;13.238;2024-03-08T23:17:11;3.58;65.99
6930;DHT22;3504;52.616;13.238;2024-03-08T23:22:12;3.53;66.38
6930;DHT22;3504;52.616;13.238;2024-03-08T23:27:13;3.50;66.57
6930;DHT22;3504;52.616;13.238;2024-03-08T23:32:14;3.49;66.71
6930;DHT22;3504;52.616;13.238;2024-03-08T23:37:14;3.43;67.09
6930;DHT22;3504;52.616;13.238;2024-03-08T23:42:15;3.43;67.01
6930;DHT22;3504;52.616;13.238;2024-03-08T23:47:16;3.38;67.59
6930;DHT22;3504;52.616;13.238;2024-03-08T23:52:18;3.39;67.52
6930;DHT22;3504;52.616;13.238;2024-03-08T23:57:18;3.35;67.80
